Time;durP1;ratioP1;P1;durP2;ratioP2;P2;SDS_P1;SDS_P2;PMS_P1;PMS_P2;Temp;Humidity;BMP_temperature;BMP_pressure;BME280_temperature;BME280_humidity;BME280_pressure;Samples;Min_cycle;Max_cycle;Signal;HPM_P1;HPM_P2
2023/09/20 00:00:32;;;;;;;15.18;4.03;;;;;;;17.52;100.00;113282.84;6245983;22;20012;-73
2023/09/20 00:03:00;;;;;;;16.88;4.70;;;;;;;17.49;100.00;110788.50;6274272;22;20337;-73
2023/09/20 00:15:47;;;;;;;18.83;4.53;;;;;;;17.36;100.00;104372.47;6269356;22;20472;-73
2023/09/20 00:25:58;;;;;;;12.88;4.18;;;;;;;17.33;100.00;103657.75;6251255;22;20511;-74
2023/09/20 00:33:33;;;;;;;18.33;6.05;;;;;;;17.25;100.00;100807.69;6284549;22;20023;-75
2023/09/20 00:35:59;;;;;;;15.13;4.47;;;;;;;17.24;100.00;100806.00;6277984;22;20007;-72
2023/09/20 00:38:24;;;;;;;16.87;4.20;;;;;;;17.20;100.00;98319.41;6276480;22;20000;-74
2023/09/20 00:40:50;;;;;;;13.97;3.87;;;;;;;17.21;100.00;98321.06;6305423;22;20007;-73
2023/09/20 00:43:25;;;;;;;10.90;4.07;;;;;;;17.23;100.00;96553.88;6276936;22;20059;-75
2023/09/20 00:45:51;;;;;;;12.65;3.90;;;;;;;17.23;100.00;99033.56;6304664;22;20306;-72
2023/09/20 00:48:17;;;;;;;16.20;4.28;;;;;;;17.24;100.00;98680.19;6304756;22;20310;-75
2023/09/20 00:50:43;;;;;;;17.55;4.43;;;;;;;17.22;100.00;97614.41;6305130;22;20010;-76
2023/09/20 00:53:13;;;;;;;16.57;4.50;;;;;;;17.18;100.00;97607.91;6303597;22;20007;-77
2023/09/20 00:55:42;;;;;;;15.57;4.78;;;;;;;17.18;100.00;99733.78;6303965;22;20040;-76
2023/09/20 00:58:15;;;;;;;20.15;4.78;;;;;;;17.21;100.00;100093.09;6304282;22;19999;-77
2023/09/20 01:00:43;;;;;;;21.33;4.72;;;;;;;17.25;100.00;103998.56;6276371;22;20078;-77
2023/09/20 01:03:15;;;;;;;13.95;3.67;;;;;;;17.21;100.00;103636.97;6303483;22;20410;-77
2023/09/20 01:34:09;;;;;;;12.40;4.13;;;;;;;17.35;100.00;118587.34;6260484;22;20031;-76
2023/09/20 01:41:37;;;;;;;14.82;4.45;;;;;;;17.21;100.00;110381.44;6181862;23;20025;-76
2023/09/20 01:44:03;;;;;;;17.00;4.77;;;;;;;17.09;100.00;110003.25;6246465;22;20022;-75
2023/09/20 01:51:39;;;;;;;13.27;4.68;;;;;;;17.02;100.00;105732.59;6211675;22;20019;-76
2023/09/20 01:56:39;;;;;;;14.60;5.20;;;;;;;17.10;100.00;104681.75;6243746;22;20020;-75
2023/09/20 02:24:56;;;;;;;18.20;4.53;;;;;;;17.21;100.00;112867.75;6294517;22;20022;-73
2023/09/20 02:27:22;;;;;;;20.40;4.90;;;;;;;17.21;100.00;112512.34;6302235;22;20007;-74
2023/09/20 02:29:48;;;;;;;20.73;4.70;;;;;;;17.29;100.00;112883.78;6276354;22;20026;-73
2023/09/20 02:32:14;;;;;;;15.73;4.78;;;;;;;17.27;100.00;116435.28;6275633;22;20010;-74
2023/09/20 02:34:39;;;;;;;17.13;4.57;;;;;;;17.29;100.00;114305.97;6276138;22;20007;-72
2023/09/20 02:37:05;;;;;;;16.00;5.03;;;;;;;17.26;100.00;116434.34;6275993;22;19995;-73
2023/09/20 02:39:32;;;;;;;9.23;4.10;;;;;;;17.38;100.00;121441.53;6276993;22;20013;-73
2023/09/20 02:41:59;;;;;;;12.15;4.97;;;;;;;17.39;100.00;124294.88;6303100;22;20347;-72
2023/09/20 02:44:26;;;;;;;15.27;4.10;;;;;;;17.49;100.00;128953.91;6303563;22;20345;-74
2023/09/20 02:46:51;;;;;;;17.53;4.30;;;;;;;17.52;100.00;135391.63;6303696;22;20007;-72
2023/09/20 03:24:08;;;;;;;10.85;3.60;;;;;;;17.47;100.00;138599.41;6249744;22;20050;-77
2023/09/20 03:26:35;;;;;;;8.07;3.23;;;;;;;17.58;100.00;141490.16;6248192;22;20449;-76
2023/09/20 03:29:04;;;;;;;10.57;3.53;;;;;;;17.57;100.00;146504.66;6276124;22;20615;-76
2023/09/20 03:31:31;;;;;;;17.75;3.80;;;;;;;17.56;100.00;142201.69;6274646;22;19999;-76
2023/09/20 03:34:00;;;;;;;12.70;4.28;;;;;;;17.49;100.00;137531.84;6274173;22;20065;-76
2023/09/20 03:36:26;;;;;;;13.60;3.90;;;;;;;17.54;100.00;134323.50;6274106;22;20003;-77
2023/09/20 03:38:55;;;;;;;11.83;3.93;;;;;;;17.54;100.00;135039.69;6274130;22;20516;-76
2023/09/20 03:41:20;;;;;;;11.95;3.95;;;;;;;17.54;100.00;132536.47;6246301;22;20003;-76
2023/09/20 03:43:52;;;;;;;11.07;3.90;;;;;;;17.60;100.00;135052.13;6273970;22;20006;-76
2023/09/20 03:46:18;;;;;;;10.15;4.05;;;;;;;17.55;100.00;136472.44;6273168;22;20341;-76
2023/09/20 03:48:43;;;;;;;9.13;3.63;;;;;;;17.57;100.00;134331.41;6273872;22;19999;-76
2023/09/20 03:51:17;;;;;;;12.57;5.07;;;;;;;17.63;100.00;138637.63;6274705;22;20440;-76
2023/09/20 03:53:44;;;;;;;11.57;3.92;;;;;;;17.61;100.00;142928.91;6275352;22;20392;-76
2023/09/20 03:56:11;;;;;;;13.57;3.72;;;;;;;17.57;100.00;140771.59;6247243;22;20086;-75
2023/09/20 03:58:37;;;;;;;11.85;3.80;;;;;;;17.57;100.00;139338.38;6246097;22;20004;-75
2023/09/20 04:01:02;;;;;;;11.65;4.25;;;;;;;17.55;100.00;137186.75;6274641;22;20057;-75
2023/09/20 04:03:28;;;;;;;12.33;4.40;;;;;;;17.57;100.00;137906.88;6245778;22;20004;-76
2023/09/20 04:05:57;;;;;;;15.27;3.77;;;;;;;17.52;100.00;134676.53;6248578;22;20015;-76
2023/09/20 04:08:22;;;;;;;13.02;3.88;;;;;;;17.48;100.00;132880.50;6274354;22;20014;-76
2023/09/20 04:10:48;;;;;;;15.30;5.67;;;;;;;17.47;100.00;132520.97;6275659;22;20003;-77
2023/09/20 04:13:17;;;;;;;12.33;3.33;;;;;;;17.37;100.00;130000.03;6274928;22;20311;-76
2023/09/20 04:15:42;;;;;;;10.93;4.57;;;;;;;17.37;100.00;127143.81;6275146;22;20560;-77
2023/09/20 04:18:09;;;;;;;13.70;4.07;;;;;;;17.32;100.00;124280.28;6275540;22;20031;-76
2023/09/20 04:20:34;;;;;;;7.32;3.75;;;;;;;17.31;100.00;120714.94;6275292;22;20057;-76
2023/09/20 04:23:00;;;;;;;13.03;3.90;;;;;;;17.27;100.00;116791.09;6275051;22;20011;-76
2023/09/20 04:25:25;;;;;;;11.43;4.20;;;;;;;17.32;100.00;116445.03;6247551;22;20012;-76
2023/09/20 04:27:51;;;;;;;21.23;5.00;;;;;;;17.32;100.00;117868.50;6274139;22;20002;-76
2023/09/20 04:32:51;;;;;;;12.93;4.50;;;;;;;17.34;100.00;122146.03;6230213;22;20032;-77
2023/09/20 04:35:17;;;;;;;13.47;4.37;;;;;;;17.29;100.00;124274.09;6273801;22;20355;-77
2023/09/20 04:37:44;;;;;;;17.03;4.77;;;;;;;17.26;100.00;124267.84;6247038;22;20333;-74
2023/09/20 04:40:09;;;;;;;10.70;4.20;;;;;;;17.20;100.00;117844.88;6274956;22;20019;-77
2023/09/20 04:42:35;;;;;;;12.70;4.07;;;;;;;17.17;100.00;117839.97;6273326;22;20003;-76
2023/09/20 04:45:07;;;;;;;10.73;4.30;;;;;;;17.09;100.00;116045.63;6275043;22;20221;-77
2023/09/20 04:47:35;;;;;;;16.45;4.72;;;;;;;17.06;100.00;113194.84;6273679;22;20006;-76
2023/09/20 04:50:02;;;;;;;14.80;4.43;;;;;;;17.02;100.00;108215.41;6248520;22;20012;-78
2023/09/20 04:52:27;;;;;;;13.15;4.30;;;;;;;16.94;100.00;102172.59;6246671;22;20376;-77
2023/09/20 04:57:31;;;;;;;12.18;4.68;;;;;;;16.88;100.00;94021.41;6244623;22;20027;-76
2023/09/20 04:59:59;;;;;;;17.83;4.10;;;;;;;16.83;100.00;92600.31;6221481;22;20082;-76
2023/09/20 05:02:25;;;;;;;23.23;5.60;;;;;;;16.91;100.00;92611.94;6271617;22;20018;-76
2023/09/20 05:33:17;;;;;;;36.53;5.40;;;;;;;16.94;100.00;93677.25;6255268;22;20038;-77
2023/09/20 05:43:28;;;;;;;14.73;5.50;;;;;;;16.86;100.00;91897.34;6245165;22;20170;-76
2023/09/20 05:45:54;;;;;;;16.43;3.93;;;;;;;16.94;100.00;91202.78;6272515;22;20341;-76
2023/09/20 05:48:19;;;;;;;12.57;3.60;;;;;;;16.95;100.00;90144.28;6224045;22;20023;-78
2023/09/20 05:50:46;;;;;;;11.20;3.43;;;;;;;16.99;100.00;90504.41;6271267;22;20014;-76
2023/09/20 05:53:12;;;;;;;11.68;3.63;;;;;;;16.99;100.00;88738.03;6272613;22;20024;-77
2023/09/20 05:55:38;;;;;;;16.43;3.67;;;;;;;16.96;100.00;88732.84;6244067;22;20413;-75
2023/09/20 05:58:04;;;;;;;8.82;3.50;;;;;;;16.96;100.00;86968.03;6272422;22;19996;-75
2023/09/20 06:00:30;;;;;;;9.13;3.65;;;;;;;17.07;100.00;85924.19;6273160;22;20353;-75
2023/09/20 06:23:36;;;;;;;13.38;3.85;;;;;;;17.05;100.00;78867.78;6260872;22;20024;-76
2023/09/20 08:20:21;;;;;;;13.23;3.00;;;;;;;18.04;100.00;140522.59;6273834;22;20027;-75
2023/09/20 09:46:54;;;;;;;8.45;3.38;;;;;;;18.57;100.00;153457.09;6248315;22;20027;-78
2023/09/20 09:49:20;;;;;;;9.10;3.20;;;;;;;18.57;100.00;156094.16;6301767;22;20015;-75
2023/09/20 09:51:52;;;;;;;9.70;3.13;;;;;;;18.58;100.00;155961.78;6275100;22;20098;-74
2023/09/20 10:15:11;;;;;;;14.07;3.92;;;;;;;18.96;100.00;156195.78;5812082;24;20029;-76
2023/09/20 10:17:51;;;;;;;10.88;3.67;;;;;;;19.19;100.00;156255.72;4848773;29;20050;-76
2023/09/20 10:20:18;;;;;;;8.00;3.28;;;;;;;19.31;100.00;156288.34;4846854;29;20034;-77
2023/09/20 10:22:47;;;;;;;13.48;3.28;;;;;;;19.48;100.00;156331.38;4847180;29;20034;-77
2023/09/20 10:25:34;;;;;;;9.60;3.83;;;;;;;19.58;100.00;156357.47;4845915;29;20118;-76
2023/09/20 10:28:08;;;;;;;6.57;3.40;;;;;;;19.68;100.00;156383.56;4860738;29;20137;-76
2023/09/20 10:31:04;;;;;;;11.43;4.18;;;;;;;19.75;100.00;156401.78;4850774;29;20030;-76
2023/09/20 10:33:52;;;;;;;11.82;3.50;;;;;;;19.93;100.00;156450.03;4846267;29;20116;-78
2023/09/20 10:36:29;;;;;;;10.70;3.78;;;;;;;19.90;100.00;156442.19;4849068;29;20129;-77
2023/09/20 10:39:17;;;;;;;8.63;3.43;;;;;;;19.94;100.00;156452.63;4849803;29;20049;-78
2023/09/20 10:41:44;;;;;;;7.07;3.30;;;;;;;20.01;100.00;156470.88;4841852;29;20136;-76
2023/09/20 10:44:28;;;;;;;9.52;3.72;;;;;;;20.23;100.00;156528.31;4845924;29;20482;-77
2023/09/20 10:46:56;;;;;;;6.65;3.50;;;;;;;20.34;100.00;156557.00;4848870;29;20030;-76
2023/09/20 10:49:49;;;;;;;14.18;3.22;;;;;;;20.36;100.00;156560.94;4848379;29;20112;-76
2023/09/20 10:52:33;;;;;;;7.32;3.08;;;;;;;20.33;100.00;156553.13;4861842;29;20033;-77
2023/09/20 10:55:17;;;;;;;11.02;3.78;;;;;;;20.42;100.00;156577.91;4850807;29;20402;-78
2023/09/20 10:57:43;;;;;;;8.45;3.70;;;;;;;20.47;100.00;156590.94;4849177;29;20093;-77
2023/09/20 11:00:09;;;;;;;11.80;3.80;;;;;;;20.37;100.00;156563.53;4850397;29;20048;-77
2023/09/20 11:02:38;;;;;;;12.37;3.40;;;;;;;20.39;100.00;156570.06;4841898;29;20068;-78
2023/09/20 11:05:07;;;;;;;12.70;3.08;;;;;;;20.82;100.00;156680.97;4851321;29;20425;-77
2023/09/20 11:07:32;;;;;;;14.27;3.35;;;;;;;20.83;100.00;156684.91;4835094;29;20053;-77
2023/09/20 11:09:59;;;;;;;10.80;3.93;;;;;;;21.02;100.00;156734.50;4846539;29;20036;-76
2023/09/20 11:12:24;;;;;;;16.20;3.65;;;;;;;20.95;100.00;156716.25;4831293;29;20038;-77
2023/09/20 11:14:51;;;;;;;8.98;3.70;;;;;;;21.38;100.00;156827.19;4838097;29;20099;-77
2023/09/20 11:17:18;;;;;;;;;;;;;;;21.19;100.00;156777.63;4834686;29;20052;-77
2023/09/20 11:19:44;;;;;;;16.05;4.05;;;;;;;21.03;100.00;156735.84;4849958;29;19920;-75
2023/09/20 11:22:10;;;;;;;7.43;3.47;;;;;;;20.82;100.00;156680.97;4830236;29;20041;-75
2023/09/20 11:24:40;;;;;;;12.57;3.87;;;;;;;21.09;100.00;156751.50;4839209;29;20277;-74
2023/09/20 11:27:05;;;;;;;12.15;3.92;;;;;;;21.01;100.00;156731.91;4836115;29;20060;-75
2023/09/20 11:29:35;;;;;;;11.60;3.67;;;;;;;21.22;100.00;156785.41;4837107;29;20065;-75
2023/09/20 11:32:00;;;;;;;5.80;3.25;;;;;;;21.29;100.00;156803.72;4832569;29;20064;-75
2023/09/20 11:34:42;;;;;;;7.57;3.40;;;;;;;21.73;100.00;156919.97;4828869;29;20037;-74
2023/09/20 11:37:07;;;;;;;6.53;3.83;;;;;;;21.81;100.00;156939.53;4834180;29;20095;-75
2023/09/20 11:39:34;;;;;;;12.27;3.20;;;;;;;21.91;100.00;156966.97;4834232;29;20137;-76
2023/09/20 11:42:00;;;;;;;;;;;;;;;22.08;100.00;157011.38;4835509;29;20060;-75
2023/09/20 11:44:26;;;;;;;8.75;3.22;;;;;;;22.58;100.00;157140.75;4834472;29;19924;-75
2023/09/20 11:46:57;;;;;;;6.40;3.30;;;;;;;22.50;100.00;157119.84;4837382;29;20034;-75
2023/09/20 11:49:24;;;;;;;8.88;3.72;;;;;;;22.39;100.00;157091.03;4833929;29;20487;-75
2023/09/20 11:51:50;;;;;;;9.20;3.65;;;;;;;22.53;100.00;157129.03;4831192;29;20022;-75
2023/09/20 11:54:16;;;;;;;7.82;3.30;;;;;;;22.96;100.00;157241.41;4833718;29;20026;-75
2023/09/20 12:12:12;;;;;;;6.82;3.90;;;;;;;22.30;100.00;157067.56;5493681;24;20062;-75
2023/09/20 12:14:38;;;;;;;5.20;3.00;;;;;;;22.16;100.00;157032.28;4831357;29;20046;-75
2023/09/20 12:24:49;;;;;;;12.13;4.05;;;;;;;22.36;100.00;157084.50;5792910;24;20036;-76
2023/09/20 12:43:26;;;;;;;10.30;3.47;;;;;;;23.05;100.00;157263.63;5160977;24;20062;-76
2023/09/20 12:45:53;;;;;;;7.57;4.00;;;;;;;23.01;100.00;157253.16;4831909;29;20033;-77
2023/09/20 12:48:19;;;;;;;7.45;2.90;;;;;;;22.71;100.00;157176.03;4859501;29;20062;-77
2023/09/20 12:50:46;;;;;;;7.10;3.78;;;;;;;22.70;100.00;157172.09;4833335;29;20487;-77
2023/09/20 12:53:11;;;;;;;11.30;3.53;;;;;;;22.35;100.00;157081.91;4861843;29;20555;-76
2023/09/20 12:58:16;;;;;;;6.22;3.60;;;;;;;22.61;100.00;157148.56;4854555;24;20062;-76
2023/09/20 13:00:42;;;;;;;9.38;3.33;;;;;;;22.57;100.00;157139.44;4829704;29;20479;-77
2023/09/20 13:03:08;;;;;;;10.43;3.47;;;;;;;22.67;100.00;157164.31;4817924;29;20069;-76
2023/09/20 13:16:15;;;;;;;10.32;3.53;;;;;;;22.54;100.00;157131.63;4923576;23;20529;-77
2023/09/20 13:23:50;;;;;;;11.73;5.90;;;;;;;22.59;100.00;157143.38;5521398;23;20054;-77
2023/09/20 13:26:16;;;;;;;17.90;3.73;;;;;;;22.57;100.00;157139.44;4816107;29;20036;-75
2023/09/20 13:28:41;;;;;;;7.00;3.58;;;;;;;22.57;100.00;157139.44;4799869;29;20043;-76
2023/09/20 13:31:07;;;;;;;10.60;3.40;;;;;;;22.26;100.00;157058.38;4815464;29;20411;-76
2023/09/20 13:33:32;;;;;;;12.00;2.93;;;;;;;22.14;100.00;157025.75;4819395;29;20035;-76
2023/09/20 13:35:58;;;;;;;10.03;3.07;;;;;;;22.07;100.00;157008.78;4815877;29;20035;-77
2023/09/20 13:38:23;;;;;;;11.17;3.67;;;;;;;22.04;100.00;157000.91;4800721;29;20042;-74
2023/09/20 13:40:49;;;;;;;12.47;3.07;;;;;;;22.10;100.00;157015.31;4803526;29;20117;-74
2023/09/20 13:43:14;;;;;;;9.30;2.90;;;;;;;22.18;100.00;157037.50;4816393;29;20054;-74
2023/09/20 13:45:43;;;;;;;6.23;2.40;;;;;;;22.44;100.00;157104.16;4818140;29;20072;-74
2023/09/20 13:48:11;;;;;;;8.32;2.80;;;;;;;22.29;100.00;157066.25;5491824;24;20078;-74
2023/09/20 13:50:39;;;;;;;14.27;2.65;;;;;;;22.25;100.00;157054.50;4847406;29;20045;-74
2023/09/20 13:53:05;;;;;;;5.45;2.30;;;;;;;22.16;100.00;157032.28;4853057;29;20503;-75
2023/09/20 13:55:30;;;;;;;7.45;2.35;;;;;;;22.06;100.00;157006.16;4834658;29;20049;-75
2023/09/20 13:57:56;;;;;;;4.30;2.10;;;;;;;22.01;100.00;156993.09;4854942;29;20034;-75
2023/09/20 14:00:21;;;;;;;8.53;2.23;;;;;;;22.04;100.00;156999.63;4834365;29;20122;-74
2023/09/20 14:02:48;;;;;;;3.90;2.33;;;;;;;21.87;100.00;156955.25;4853179;29;20502;-74
2023/09/20 14:05:15;;;;;;;6.13;2.25;;;;;;;21.78;100.00;156931.72;4849449;29;20494;-74
2023/09/20 14:07:45;;;;;;;7.32;2.75;;;;;;;21.75;100.00;156923.84;4852393;29;21925;-74
2023/09/20 14:15:25;;;;;;;4.18;2.38;;;;;;;21.64;100.00;156896.41;5521643;24;20065;-75
2023/09/20 14:17:52;;;;;;;11.23;2.50;;;;;;;21.60;100.00;156884.69;4832525;29;20032;-75
2023/09/20 14:20:20;;;;;;;12.65;2.85;;;;;;;21.59;100.00;156883.34;4852845;29;20037;-76
2023/09/20 14:22:49;;;;;;;6.30;2.20;;;;;;;21.51;100.00;156861.16;4835923;29;20435;-75
2023/09/20 14:25:16;;;;;;;6.05;2.65;;;;;;;21.31;100.00;156810.25;4836327;29;20026;-74
2023/09/20 14:27:41;;;;;;;3.67;2.55;;;;;;;21.48;100.00;156854.63;4827475;29;20501;-75
2023/09/20 14:30:15;;;;;;;9.33;2.43;;;;;;;21.56;100.00;156874.22;4838625;29;20042;-75
2023/09/20 14:32:41;;;;;;;8.77;2.80;;;;;;;21.65;100.00;156897.69;4852201;29;20065;-74
2023/09/20 14:35:08;;;;;;;5.05;2.20;;;;;;;21.65;100.00;156899.00;4850363;29;20462;-74
2023/09/20 14:37:36;;;;;;;10.43;2.38;;;;;;;21.68;100.00;156905.59;4845605;29;20038;-75
2023/09/20 14:40:03;;;;;;;12.05;2.45;;;;;;;21.76;100.00;156927.78;4850005;29;20037;-74
2023/09/20 14:42:29;;;;;;;5.28;2.10;;;;;;;21.69;100.00;156909.53;4851348;29;20085;-75
2023/09/20 14:44:54;;;;;;;4.50;1.92;;;;;;;21.68;100.00;156906.91;5638228;24;20017;-75
2023/09/20 14:47:22;;;;;;;7.50;2.07;;;;;;;21.65;100.00;156897.69;5351272;24;20404;-75
2023/09/20 14:49:48;;;;;;;5.93;2.20;;;;;;;21.52;100.00;156865.09;4838860;29;20878;-76
2023/09/20 16:07:33;;;;;;;9.95;3.50;;;;;;;20.99;100.00;156725.38;4863591;24;20061;-76
2023/09/20 16:17:44;;;;;;;5.20;2.40;;;;;;;20.90;100.00;156701.88;5100988;24;20053;-74
2023/09/20 16:20:10;;;;;;;2.87;2.30;;;;;;;20.98;100.00;156722.78;4837470;29;20176;-73
2023/09/20 16:22:37;;;;;;;5.32;2.55;;;;;;;21.00;100.00;156729.31;4839355;29;20121;-73
2023/09/20 16:25:03;;;;;;;;;;;;;;;20.99;100.00;156726.72;4841740;29;20141;-74
2023/09/20 16:27:28;;;;;;;11.02;3.10;;;;;;;21.04;100.00;156739.78;4853700;29;20377;-73
2023/09/20 16:29:54;;;;;;;6.68;2.60;;;;;;;21.03;100.00;156735.84;4851537;29;20062;-74
2023/09/20 16:32:20;;;;;;;7.65;2.78;;;;;;;21.03;100.00;156735.84;4844170;29;20124;-73
2023/09/20 16:34:48;;;;;;;9.43;2.50;;;;;;;21.04;100.00;156739.78;4845895;29;20037;-74
2023/09/20 16:37:14;;;;;;;6.07;2.47;;;;;;;21.04;100.00;156738.44;4845926;29;20403;-73
2023/09/20 16:39:40;;;;;;;10.23;2.92;;;;;;;21.05;100.00;156742.38;4844626;29;20049;-74
2023/09/20 16:42:05;;;;;;;8.00;2.30;;;;;;;21.05;100.00;156741.03;4846579;29;20072;-74
2023/09/20 16:44:31;;;;;;;9.13;2.50;;;;;;;21.07;100.00;156747.56;4845484;29;20122;-74
2023/09/20 16:46:57;;;;;;;6.10;2.37;;;;;;;21.00;100.00;156728.00;4838780;29;20040;-75
2023/09/20 16:49:22;;;;;;;;;;;;;;;20.98;100.00;156722.78;4849271;29;20072;-75
2023/09/20 16:51:48;;;;;;;6.93;3.05;;;;;;;20.88;100.00;156696.63;4840060;29;19920;-73
2023/09/20 16:54:14;;;;;;;13.57;2.83;;;;;;;20.88;100.00;156696.63;4835085;29;20117;-73
2023/09/20 16:56:39;;;;;;;9.38;3.17;;;;;;;20.88;100.00;156697.97;4844737;29;20033;-73
2023/09/20 16:59:07;;;;;;;4.97;2.77;;;;;;;20.86;100.00;156691.44;4831038;29;20050;-72
2023/09/20 17:01:34;;;;;;;7.30;2.42;;;;;;;20.83;100.00;156683.59;4838671;29;20052;-73
2023/09/20 17:04:00;;;;;;;8.18;3.10;;;;;;;20.73;100.00;156658.81;4846135;29;20036;-72
2023/09/20 17:06:26;;;;;;;7.17;2.70;;;;;;;20.64;100.00;156634.03;4845614;29;20038;-72
2023/09/20 17:08:51;;;;;;;7.00;2.63;;;;;;;20.53;100.00;156605.28;4851588;29;20044;-73
2023/09/20 17:11:18;;;;;;;13.77;2.30;;;;;;;20.44;100.00;156581.81;4838382;29;20037;-74
2023/09/20 17:13:43;;;;;;;;;;;;;;;20.31;100.00;156549.19;4851257;29;20144;-74
2023/09/20 17:16:09;;;;;;;6.43;2.45;;;;;;;20.24;100.00;156529.63;4849766;29;19998;-75
2023/09/20 17:18:34;;;;;;;7.80;2.63;;;;;;;20.16;100.00;156508.78;4853205;29;20363;-77
2023/09/20 17:21:03;;;;;;;4.83;2.50;;;;;;;20.04;100.00;156478.72;4837644;29;20041;-76
2023/09/20 17:59:41;;;;;;;5.47;2.80;;;;;;;19.40;100.00;156311.81;5754252;24;20036;-76
2023/09/20 18:19:00;;;;;;;7.30;2.90;;;;;;;19.09;100.00;156230.97;5102492;24;20133;-72
2023/09/20 18:21:26;;;;;;;10.13;3.20;;;;;;;19.08;100.00;156228.38;4846334;29;20039;-74
2023/09/20 18:23:52;;;;;;;8.30;3.47;;;;;;;19.03;100.00;156214.00;4841738;29;20365;-76
2023/09/20 18:46:59;;;;;;;3.92;2.70;;;;;;;18.56;100.00;156092.84;5441744;23;20112;-74
2023/09/20 18:49:24;;;;;;;6.53;2.87;;;;;;;18.48;100.00;156072.03;4789264;29;20634;-73
2023/09/20 18:51:51;;;;;;;7.57;2.50;;;;;;;18.37;100.00;156043.38;4788561;29;20396;-74
2023/09/20 18:54:17;;;;;;;7.15;2.97;;;;;;;18.36;100.00;156039.44;4788506;29;20083;-74
2023/09/20 18:56:42;;;;;;;12.73;3.55;;;;;;;18.36;100.00;156040.72;4792024;29;20457;-75
2023/09/20 18:59:12;;;;;;;3.97;2.83;;;;;;;18.38;100.00;154647.63;4788453;29;20063;-75
2023/09/20 19:17:11;;;;;;;10.35;3.42;;;;;;;18.42;100.00;145275.47;5726007;24;20054;-75
2023/09/20 19:19:38;;;;;;;8.38;2.90;;;;;;;18.43;100.00;146354.88;4787226;29;20042;-74
2023/09/20 19:22:03;;;;;;;5.85;2.90;;;;;;;18.48;100.00;150393.09;4764375;29;20051;-75
2023/09/20 19:24:33;;;;;;;9.63;3.23;;;;;;;18.43;100.00;148533.44;4780853;29;20481;-75
2023/09/20 19:26:59;;;;;;;6.68;2.90;;;;;;;18.44;100.00;142409.59;4769265;29;20031;-75
2023/09/20 19:29:25;;;;;;;11.47;2.93;;;;;;;18.53;100.00;144584.16;4784698;29;20507;-73
2023/09/20 19:50:00;;;;;;;8.57;2.80;;;;;;;18.33;100.00;135217.94;5658662;24;20070;-74
2023/09/20 19:52:26;;;;;;;7.00;2.67;;;;;;;18.28;100.00;132343.63;4795789;29;20421;-76
2023/09/20 19:54:55;;;;;;;5.15;2.80;;;;;;;18.26;100.00;130907.44;4797469;29;20476;-74
2023/09/20 20:10:17;;;;;;;7.70;3.10;;;;;;;18.09;100.00;112677.84;5664423;24;20452;-74
2023/09/20 20:12:44;;;;;;;;;;;;;;;18.08;100.00;113032.84;4832172;29;20038;-74
2023/09/20 20:15:10;;;;;;;8.02;3.05;;;;;;;18.16;100.00;113759.03;4840562;29;19916;-75
2023/09/20 20:17:38;;;;;;;3.78;2.80;;;;;;;18.19;100.00;115189.31;4853599;29;20490;-74
2023/09/20 20:20:15;;;;;;;5.97;2.85;;;;;;;18.21;100.00;118043.81;4849132;29;20072;-74
2023/09/20 20:22:47;;;;;;;6.95;2.47;;;;;;;18.24;100.00;119833.50;4851277;29;20022;-74
2023/09/20 20:27:49;;;;;;;4.80;2.53;;;;;;;18.19;100.00;120536.78;4913073;24;20062;-73
2023/09/20 20:30:15;;;;;;;;;;;;;;;18.24;100.00;118050.69;4823088;29;20487;-74
2023/09/20 20:32:41;;;;;;;13.60;2.65;;;;;;;18.25;100.00;118765.72;5582837;24;20246;-74
2023/09/20 21:13:55;;;;;;;5.15;3.08;;;;;;;18.29;100.00;122340.91;5330375;24;20069;-75
2023/09/20 21:18:57;;;;;;;13.85;2.95;;;;;;;18.45;100.00;135245.00;5579216;24;20054;-81
2023/09/20 21:21:23;;;;;;;;;;;;;;;18.38;100.00;138810.16;4836298;29;20841;-79
2023/09/20 21:23:48;;;;;;;8.55;3.22;;;;;;;18.40;100.00;136665.13;4825154;29;19919;-78
2023/09/20 21:26:15;;;;;;;5.87;2.67;;;;;;;18.37;100.00;140601.22;4819746;29;20033;-78
2023/09/20 21:28:41;;;;;;;5.57;2.90;;;;;;;18.41;100.00;142403.66;4825555;29;20058;-77
2023/09/20 21:31:15;;;;;;;8.47;2.80;;;;;;;18.49;100.00;150097.97;4838480;29;20061;-78
2023/09/20 21:33:43;;;;;;;7.50;2.83;;;;;;;18.55;100.00;156090.25;4832537;29;20506;-78
2023/09/20 21:36:08;;;;;;;3.55;2.45;;;;;;;18.63;100.00;156111.06;4830849;29;20121;-78
2023/09/20 21:54:05;;;;;;;4.72;2.90;;;;;;;18.88;100.00;156174.94;5505692;24;20074;-76
2023/09/20 21:56:30;;;;;;;3.47;2.17;;;;;;;18.83;100.00;156163.19;4851699;29;20447;-75
2023/09/20 21:58:55;;;;;;;6.57;2.83;;;;;;;18.82;100.00;156159.28;4832252;29;20092;-75
2023/09/20 22:01:23;;;;;;;7.37;2.43;;;;;;;18.87;100.00;156173.63;4851810;29;20042;-75
2023/09/20 22:03:50;;;;;;;5.90;2.38;;;;;;;18.79;100.00;156151.47;4841704;29;20036;-74
2023/09/20 22:06:15;;;;;;;3.65;2.10;;;;;;;18.77;100.00;156146.25;4831497;29;20109;-75
2023/09/20 22:08:41;;;;;;;9.97;2.47;;;;;;;18.83;100.00;156161.91;4852324;29;20033;-75
2023/09/20 22:11:14;;;;;;;8.90;2.55;;;;;;;18.82;100.00;156159.28;4855609;29;20022;-74
2023/09/20 22:24:00;;;;;;;4.90;2.47;;;;;;;18.95;100.00;156193.19;5027395;23;20066;-75
2023/09/20 22:26:26;;;;;;;4.70;2.60;;;;;;;18.90;100.00;156180.16;4815929;29;20041;-74
2023/09/20 22:28:51;;;;;;;8.03;3.23;;;;;;;18.79;100.00;156151.47;4814637;29;20035;-75
2023/09/20 22:31:18;;;;;;;7.03;3.00;;;;;;;18.88;100.00;156176.22;4796704;29;20531;-75
2023/09/20 22:33:43;;;;;;;5.30;2.70;;;;;;;18.81;100.00;156156.66;4812027;29;20689;-75
2023/09/20 22:36:09;;;;;;;6.07;2.80;;;;;;;18.89;100.00;156177.53;4825597;29;20046;-75
2023/09/20 22:38:35;;;;;;;5.70;2.65;;;;;;;18.83;100.00;156163.19;4813045;29;20046;-75
2023/09/20 23:09:28;;;;;;;3.25;2.20;;;;;;;19.00;100.00;156207.47;4928541;24;20062;-74
2023/09/20 23:11:53;;;;;;;3.10;2.50;;;;;;;19.11;100.00;156236.16;4841452;29;20482;-74
2023/09/20 23:14:18;;;;;;;5.07;2.30;;;;;;;19.17;100.00;156250.50;4855826;29;20089;-74
2023/09/20 23:32:16;;;;;;;11.05;2.88;;;;;;;19.34;100.00;156296.19;4850401;23;20069;-75
2023/09/20 23:39:52;;;;;;;7.40;2.38;;;;;;;19.34;100.00;156296.19;4813557;29;20059;-74
2023/09/20 23:42:17;;;;;;;3.47;2.20;;;;;;;19.30;100.00;156285.75;4794919;29;20046;-74
2023/09/20 23:44:43;;;;;;;5.00;2.33;;;;;;;19.29;100.00;156281.84;4799425;29;20503;-74
2023/09/20 23:47:08;;;;;;;10.47;2.80;;;;;;;19.33;100.00;156292.28;4802508;29;20039;-73
2023/09/20 23:49:34;;;;;;;5.03;2.60;;;;;;;19.35;100.00;156297.47;4798018;29;20117;-74
2023/09/20 23:52:01;;;;;;;7.10;2.50;;;;;;;19.35;100.00;156297.47;4878884;24;20054;-74
2023/09/20 23:54:29;;;;;;;7.03;2.47;;;;;;;19.44;100.00;156320.94;4809656;29;20494;-75
2023/09/20 23:56:54;;;;;;;8.75;2.30;;;;;;;19.45;100.00;156323.53;4810060;29;20049;-75
2023/09/20 23:59:20;;;;;;;5.80;2.70;;;;;;;19.40;100.00;156310.50;4805898;29;20475;-75
